sensor_id;sensor_type;location;lat;lon;timestamp;P1;durP1;ratioP1;P2;durP2;ratioP2
53533;SDS011;39421;53.204;6.568;2023-08-12T00:00:22;9.80;;;3.90;;
53533;SDS011;39421;53.204;6.568;2023-08-12T00:02:48;10.53;;;3.90;;
53533;SDS011;39421;53.204;6.568;2023-08-12T00:05:14;10.25;;;3.70;;
53533;SDS011;39421;53.204;6.568;2023-08-12T00:07:41;8.77;;;3.47;;
53533;SDS011;39421;53.204;6.568;2023-08-12T00:10:07;9.38;;;3.40;;
53533;SDS011;39421;53.204;6.568;2023-08-12T00:12:34;8.47;;;3.40;;
53533;SDS011;39421;53.204;6.568;2023-08-12T00:15:01;7.75;;;3.30;;
53533;SDS011;39421;53.204;6.568;2023-08-12T00:17:28;8.30;;;3.35;;
53533;SDS011;39421;53.204;6.568;2023-08-12T00:19:54;9.35;;;3.28;;
53533;SDS011;39421;53.204;6.568;2023-08-12T00:22:21;8.60;;;3.28;;
53533;SDS011;39421;53.204;6.568;2023-08-12T00:24:47;8.43;;;3.50;;
53533;SDS011;39421;53.204;6.568;2023-08-12T00:27:13;7.90;;;3.22;;
53533;SDS011;39421;53.204;6.568;2023-08-12T00:29:40;8.05;;;3.60;;
53533;SDS011;39421;53.204;6.568;2023-08-12T00:32:07;10.30;;;3.42;;
53533;SDS011;39421;53.204;6.568;2023-08-12T00:34:34;9.13;;;3.70;;
53533;SDS011;39421;53.204;6.568;2023-08-12T00:37:00;9.98;;;3.50;;
53533;SDS011;39421;53.204;6.568;2023-08-12T00:39:26;8.85;;;3.30;;
53533;SDS011;39421;53.204;6.568;2023-08-12T00:41:52;9.60;;;3.47;;
53533;SDS011;39421;53.204;6.568;2023-08-12T00:44:18;9.25;;;3.40;;
53533;SDS011;39421;53.204;6.568;2023-08-12T00:46:44;9.82;;;3.60;;
53533;SDS011;39421;53.204;6.568;2023-08-12T00:49:11;8.25;;;3.20;;
53533;SDS011;39421;53.204;6.568;2023-08-12T00:51:38;8.40;;;3.20;;
53533;SDS011;39421;53.204;6.568;2023-08-12T00:54:06;8.37;;;3.07;;
53533;SDS011;39421;53.204;6.568;2023-08-12T00:56:32;9.02;;;3.17;;
53533;SDS011;39421;53.204;6.568;2023-08-12T00:58:59;8.82;;;3.20;;
53533;SDS011;39421;53.204;6.568;2023-08-12T01:01:26;9.10;;;3.30;;
53533;SDS011;39421;53.204;6.568;2023-08-12T01:03:52;9.23;;;3.10;;
53533;SDS011;39421;53.204;6.568;2023-08-12T01:06:18;8.68;;;3.20;;
53533;SDS011;39421;53.204;6.568;2023-08-12T01:08:44;9.15;;;3.40;;
53533;SDS011;39421;53.204;6.568;2023-08-12T01:13:56;9.13;;;3.38;;
53533;SDS011;39421;53.204;6.568;2023-08-12T01:16:24;9.48;;;3.45;;
53533;SDS011;39421;53.204;6.568;2023-08-12T01:18:52;9.27;;;3.25;;
53533;SDS011;39421;53.204;6.568;2023-08-12T01:21:18;8.35;;;3.30;;
53533;SDS011;39421;53.204;6.568;2023-08-12T01:23:47;9.27;;;3.40;;
53533;SDS011;39421;53.204;6.568;2023-08-12T01:26:13;9.95;;;3.53;;
53533;SDS011;39421;53.204;6.568;2023-08-12T01:28:39;8.53;;;3.30;;
53533;SDS011;39421;53.204;6.568;2023-08-12T01:31:08;9.55;;;3.70;;
53533;SDS011;39421;53.204;6.568;2023-08-12T01:36:09;10.03;;;3.77;;
53533;SDS011;39421;53.204;6.568;2023-08-12T01:38:35;9.52;;;3.88;;
53533;SDS011;39421;53.204;6.568;2023-08-12T01:41:04;9.30;;;3.78;;
53533;SDS011;39421;53.204;6.568;2023-08-12T01:43:30;9.70;;;4.00;;
53533;SDS011;39421;53.204;6.568;2023-08-12T01:45:56;10.13;;;4.00;;
53533;SDS011;39421;53.204;6.568;2023-08-12T01:48:23;11.20;;;4.00;;
53533;SDS011;39421;53.204;6.568;2023-08-12T01:50:49;10.55;;;4.32;;
53533;SDS011;39421;53.204;6.568;2023-08-12T01:53:15;8.75;;;3.97;;
53533;SDS011;39421;53.204;6.568;2023-08-12T01:55:44;10.13;;;4.25;;
53533;SDS011;39421;53.204;6.568;2023-08-12T01:58:11;10.27;;;4.18;;
53533;SDS011;39421;53.204;6.568;2023-08-12T02:00:37;10.55;;;4.30;;
53533;SDS011;39421;53.204;6.568;2023-08-12T02:03:03;12.00;;;4.50;;
53533;SDS011;39421;53.204;6.568;2023-08-12T02:05:29;12.00;;;4.90;;
53533;SDS011;39421;53.204;6.568;2023-08-12T02:07:55;10.00;;;4.47;;
53533;SDS011;39421;53.204;6.568;2023-08-12T02:10:21;11.38;;;4.57;;
53533;SDS011;39421;53.204;6.568;2023-08-12T02:12:49;11.40;;;4.50;;
53533;SDS011;39421;53.204;6.568;2023-08-12T02:15:16;9.38;;;4.20;;
53533;SDS011;39421;53.204;6.568;2023-08-12T02:17:42;10.95;;;4.47;;
53533;SDS011;39421;53.204;6.568;2023-08-12T02:20:08;11.07;;;4.50;;
53533;SDS011;39421;53.204;6.568;2023-08-12T02:22:34;10.23;;;3.97;;
53533;SDS011;39421;53.204;6.568;2023-08-12T02:25:00;11.90;;;4.72;;
53533;SDS011;39421;53.204;6.568;2023-08-12T02:27:26;9.07;;;3.80;;
53533;SDS011;39421;53.204;6.568;2023-08-12T02:29:52;8.98;;;3.75;;
53533;SDS011;39421;53.204;6.568;2023-08-12T02:32:18;9.05;;;4.13;;
53533;SDS011;39421;53.204;6.568;2023-08-12T02:34:44;10.47;;;4.63;;
53533;SDS011;39421;53.204;6.568;2023-08-12T02:37:10;9.38;;;4.35;;
53533;SDS011;39421;53.204;6.568;2023-08-12T02:39:38;9.77;;;4.40;;
53533;SDS011;39421;53.204;6.568;2023-08-12T02:42:04;10.45;;;4.50;;
53533;SDS011;39421;53.204;6.568;2023-08-12T02:44:30;10.05;;;4.40;;
53533;SDS011;39421;53.204;6.568;2023-08-12T02:46:56;9.27;;;4.50;;
53533;SDS011;39421;53.204;6.568;2023-08-12T02:49:22;10.02;;;4.72;;
53533;SDS011;39421;53.204;6.568;2023-08-12T02:51:48;10.90;;;5.05;;
53533;SDS011;39421;53.204;6.568;2023-08-12T02:54:14;11.25;;;5.20;;
53533;SDS011;39421;53.204;6.568;2023-08-12T02:56:41;11.00;;;5.28;;
53533;SDS011;39421;53.204;6.568;2023-08-12T02:59:07;11.15;;;5.13;;
53533;SDS011;39421;53.204;6.568;2023-08-12T03:01:33;11.75;;;5.60;;
53533;SDS011;39421;53.204;6.568;2023-08-12T03:03:59;12.32;;;5.78;;
53533;SDS011;39421;53.204;6.568;2023-08-12T03:06:25;10.25;;;5.30;;
53533;SDS011;39421;53.204;6.568;2023-08-12T03:08:51;11.82;;;5.82;;
53533;SDS011;39421;53.204;6.568;2023-08-12T03:11:17;11.82;;;5.82;;
53533;SDS011;39421;53.204;6.568;2023-08-12T03:13:44;12.35;;;5.70;;
53533;SDS011;39421;53.204;6.568;2023-08-12T03:16:14;12.93;;;5.85;;
53533;SDS011;39421;53.204;6.568;2023-08-12T03:18:40;11.88;;;5.97;;
53533;SDS011;39421;53.204;6.568;2023-08-12T03:21:07;11.48;;;5.75;;
53533;SDS011;39421;53.204;6.568;2023-08-12T03:23:33;10.45;;;5.43;;
53533;SDS011;39421;53.204;6.568;2023-08-12T03:25:59;11.02;;;5.18;;
53533;SDS011;39421;53.204;6.568;2023-08-12T03:28:25;12.60;;;5.93;;
53533;SDS011;39421;53.204;6.568;2023-08-12T03:30:52;11.52;;;5.45;;
53533;SDS011;39421;53.204;6.568;2023-08-12T03:33:18;11.95;;;5.70;;
53533;SDS011;39421;53.204;6.568;2023-08-12T03:35:45;12.13;;;5.78;;
53533;SDS011;39421;53.204;6.568;2023-08-12T03:38:12;11.70;;;5.85;;
53533;SDS011;39421;53.204;6.568;2023-08-12T03:40:38;12.68;;;5.88;;
53533;SDS011;39421;53.204;6.568;2023-08-12T03:43:05;12.85;;;6.50;;
53533;SDS011;39421;53.204;6.568;2023-08-12T03:45:31;12.20;;;6.05;;
53533;SDS011;39421;53.204;6.568;2023-08-12T03:47:57;12.60;;;6.20;;
53533;SDS011;39421;53.204;6.568;2023-08-12T03:50:23;12.90;;;5.78;;
53533;SDS011;39421;53.204;6.568;2023-08-12T03:52:49;12.30;;;6.38;;
53533;SDS011;39421;53.204;6.568;2023-08-12T03:55:15;13.10;;;6.47;;
53533;SDS011;39421;53.204;6.568;2023-08-12T03:57:41;11.88;;;6.10;;
53533;SDS011;39421;53.204;6.568;2023-08-12T04:00:07;12.73;;;6.80;;
53533;SDS011;39421;53.204;6.568;2023-08-12T04:02:34;12.88;;;6.55;;
53533;SDS011;39421;53.204;6.568;2023-08-12T04:05:00;13.45;;;6.60;;
53533;SDS011;39421;53.204;6.568;2023-08-12T04:07:26;14.18;;;6.70;;
53533;SDS011;39421;53.204;6.568;2023-08-12T04:09:52;13.73;;;6.85;;
53533;SDS011;39421;53.204;6.568;2023-08-12T04:12:19;13.52;;;6.80;;
53533;SDS011;39421;53.204;6.568;2023-08-12T04:14:45;14.52;;;6.93;;
53533;SDS011;39421;53.204;6.568;2023-08-12T04:17:11;14.02;;;6.95;;
53533;SDS011;39421;53.204;6.568;2023-08-12T04:19:37;14.00;;;7.45;;
53533;SDS011;39421;53.204;6.568;2023-08-12T04:22:03;14.10;;;7.33;;
53533;SDS011;39421;53.204;6.568;2023-08-12T04:24:29;12.95;;;7.10;;
53533;SDS011;39421;53.204;6.568;2023-08-12T04:26:56;13.20;;;6.97;;
53533;SDS011;39421;53.204;6.568;2023-08-12T04:29:22;14.30;;;7.90;;
53533;SDS011;39421;53.204;6.568;2023-08-12T04:31:48;15.23;;;7.70;;
53533;SDS011;39421;53.204;6.568;2023-08-12T04:34:14;14.00;;;7.82;;
53533;SDS011;39421;53.204;6.568;2023-08-12T04:36:40;16.77;;;8.00;;
53533;SDS011;39421;53.204;6.568;2023-08-12T04:39:06;15.70;;;8.18;;
53533;SDS011;39421;53.204;6.568;2023-08-12T04:41:32;14.18;;;8.20;;
53533;SDS011;39421;53.204;6.568;2023-08-12T04:43:58;15.75;;;8.40;;
53533;SDS011;39421;53.204;6.568;2023-08-12T04:46:24;16.08;;;8.50;;
53533;SDS011;39421;53.204;6.568;2023-08-12T04:48:50;15.07;;;8.65;;
53533;SDS011;39421;53.204;6.568;2023-08-12T04:51:17;15.23;;;8.32;;
53533;SDS011;39421;53.204;6.568;2023-08-12T04:53:43;14.60;;;7.90;;
53533;SDS011;39421;53.204;6.568;2023-08-12T04:56:09;14.90;;;8.18;;
53533;SDS011;39421;53.204;6.568;2023-08-12T04:58:35;15.07;;;8.00;;
53533;SDS011;39421;53.204;6.568;2023-08-12T05:01:01;13.60;;;7.50;;
53533;SDS011;39421;53.204;6.568;2023-08-12T05:03:28;15.18;;;8.05;;
53533;SDS011;39421;53.204;6.568;2023-08-12T05:05:54;14.45;;;7.72;;
53533;SDS011;39421;53.204;6.568;2023-08-12T05:08:20;15.10;;;7.57;;
53533;SDS011;39421;53.204;6.568;2023-08-12T05:10:47;14.55;;;7.78;;
53533;SDS011;39421;53.204;6.568;2023-08-12T05:13:13;13.52;;;7.20;;
53533;SDS011;39421;53.204;6.568;2023-08-12T05:15:40;14.20;;;7.55;;
53533;SDS011;39421;53.204;6.568;2023-08-12T05:18:06;13.88;;;7.50;;
53533;SDS011;39421;53.204;6.568;2023-08-12T05:20:32;13.00;;;7.38;;
53533;SDS011;39421;53.204;6.568;2023-08-12T05:22:58;14.50;;;7.77;;
53533;SDS011;39421;53.204;6.568;2023-08-12T05:25:24;13.82;;;7.40;;
53533;SDS011;39421;53.204;6.568;2023-08-12T05:27:50;14.60;;;7.07;;
53533;SDS011;39421;53.204;6.568;2023-08-12T05:30:16;12.52;;;6.78;;
53533;SDS011;39421;53.204;6.568;2023-08-12T05:32:42;14.02;;;7.50;;
53533;SDS011;39421;53.204;6.568;2023-08-12T05:35:08;13.52;;;7.10;;
53533;SDS011;39421;53.204;6.568;2023-08-12T05:37:34;14.32;;;7.38;;
53533;SDS011;39421;53.204;6.568;2023-08-12T05:40:01;13.52;;;7.38;;
53533;SDS011;39421;53.204;6.568;2023-08-12T05:42:29;14.45;;;7.30;;
53533;SDS011;39421;53.204;6.568;2023-08-12T05:44:55;15.32;;;7.82;;
53533;SDS011;39421;53.204;6.568;2023-08-12T05:47:21;13.13;;;7.60;;
53533;SDS011;39421;53.204;6.568;2023-08-12T05:49:47;12.30;;;7.15;;
53533;SDS011;39421;53.204;6.568;2023-08-12T05:52:13;14.57;;;7.65;;
53533;SDS011;39421;53.204;6.568;2023-08-12T05:54:39;13.98;;;7.40;;
53533;SDS011;39421;53.204;6.568;2023-08-12T05:57:05;14.70;;;7.60;;
53533;SDS011;39421;53.204;6.568;2023-08-12T05:59:31;15.13;;;7.63;;
53533;SDS011;39421;53.204;6.568;2023-08-12T06:01:57;14.03;;;7.87;;
53533;SDS011;39421;53.204;6.568;2023-08-12T06:04:24;14.57;;;7.85;;
53533;SDS011;39421;53.204;6.568;2023-08-12T06:06:50;14.82;;;7.75;;
53533;SDS011;39421;53.204;6.568;2023-08-12T06:09:16;15.18;;;7.53;;
53533;SDS011;39421;53.204;6.568;2023-08-12T06:11:42;14.20;;;7.43;;
53533;SDS011;39421;53.204;6.568;2023-08-12T06:14:08;16.63;;;8.10;;
53533;SDS011;39421;53.204;6.568;2023-08-12T06:16:34;16.73;;;8.40;;
53533;SDS011;39421;53.204;6.568;2023-08-12T06:19:00;15.70;;;8.07;;
53533;SDS011;39421;53.204;6.568;2023-08-12T06:21:27;15.40;;;8.48;;
53533;SDS011;39421;53.204;6.568;2023-08-12T06:23:53;15.35;;;8.13;;
53533;SDS011;39421;53.204;6.568;2023-08-12T06:26:19;14.85;;;8.82;;
53533;SDS011;39421;53.204;6.568;2023-08-12T06:28:45;15.63;;;8.80;;
53533;SDS011;39421;53.204;6.568;2023-08-12T06:31:11;15.05;;;7.97;;
53533;SDS011;39421;53.204;6.568;2023-08-12T06:33:37;16.02;;;8.68;;
53533;SDS011;39421;53.204;6.568;2023-08-12T06:36:03;16.50;;;8.40;;
53533;SDS011;39421;53.204;6.568;2023-08-12T06:38:29;15.75;;;8.38;;
53533;SDS011;39421;53.204;6.568;2023-08-12T06:40:56;16.52;;;8.50;;
53533;SDS011;39421;53.204;6.568;2023-08-12T06:43:22;16.70;;;8.48;;
53533;SDS011;39421;53.204;6.568;2023-08-12T06:45:48;17.25;;;9.32;;
53533;SDS011;39421;53.204;6.568;2023-08-12T06:48:14;16.10;;;8.87;;
53533;SDS011;39421;53.204;6.568;2023-08-12T06:50:40;16.27;;;9.25;;
53533;SDS011;39421;53.204;6.568;2023-08-12T06:53:06;15.33;;;8.33;;
53533;SDS011;39421;53.204;6.568;2023-08-12T06:55:32;15.57;;;8.95;;
53533;SDS011;39421;53.204;6.568;2023-08-12T06:57:59;15.32;;;8.95;;
53533;SDS011;39421;53.204;6.568;2023-08-12T07:00:25;16.75;;;9.80;;
53533;SDS011;39421;53.204;6.568;2023-08-12T07:02:51;16.35;;;9.38;;
53533;SDS011;39421;53.204;6.568;2023-08-12T07:05:17;17.77;;;9.68;;
53533;SDS011;39421;53.204;6.568;2023-08-12T07:07:43;15.90;;;9.00;;
53533;SDS011;39421;53.204;6.568;2023-08-12T07:10:10;16.70;;;9.18;;
53533;SDS011;39421;53.204;6.568;2023-08-12T07:12:36;16.58;;;9.13;;
53533;SDS011;39421;53.204;6.568;2023-08-12T07:15:02;16.73;;;9.25;;
53533;SDS011;39421;53.204;6.568;2023-08-12T07:17:28;15.85;;;9.35;;
53533;SDS011;39421;53.204;6.568;2023-08-12T07:19:55;18.13;;;9.77;;
53533;SDS011;39421;53.204;6.568;2023-08-12T07:22:21;18.00;;;10.10;;
53533;SDS011;39421;53.204;6.568;2023-08-12T07:24:47;16.60;;;9.60;;
53533;SDS011;39421;53.204;6.568;2023-08-12T07:27:13;18.40;;;10.05;;
53533;SDS011;39421;53.204;6.568;2023-08-12T07:29:39;17.45;;;9.65;;
53533;SDS011;39421;53.204;6.568;2023-08-12T07:32:05;16.55;;;9.80;;
53533;SDS011;39421;53.204;6.568;2023-08-12T07:34:31;18.63;;;10.63;;
53533;SDS011;39421;53.204;6.568;2023-08-12T07:36:57;19.23;;;11.10;;
53533;SDS011;39421;53.204;6.568;2023-08-12T07:39:23;18.17;;;11.00;;
53533;SDS011;39421;53.204;6.568;2023-08-12T07:41:49;17.38;;;10.65;;
53533;SDS011;39421;53.204;6.568;2023-08-12T07:44:15;18.73;;;11.13;;
53533;SDS011;39421;53.204;6.568;2023-08-12T07:46:41;19.05;;;11.07;;
53533;SDS011;39421;53.204;6.568;2023-08-12T07:49:08;21.55;;;12.15;;
53533;SDS011;39421;53.204;6.568;2023-08-12T07:51:34;20.23;;;11.70;;
53533;SDS011;39421;53.204;6.568;2023-08-12T07:54:00;19.05;;;11.82;;
53533;SDS011;39421;53.204;6.568;2023-08-12T07:56:26;21.07;;;12.03;;
53533;SDS011;39421;53.204;6.568;2023-08-12T07:58:52;20.63;;;12.13;;
53533;SDS011;39421;53.204;6.568;2023-08-12T08:01:18;20.70;;;12.27;;
53533;SDS011;39421;53.204;6.568;2023-08-12T08:03:44;22.58;;;12.55;;
53533;SDS011;39421;53.204;6.568;2023-08-12T08:06:11;21.42;;;12.57;;
53533;SDS011;39421;53.204;6.568;2023-08-12T08:08:37;20.70;;;12.90;;
53533;SDS011;39421;53.204;6.568;2023-08-12T08:11:03;22.20;;;13.07;;
53533;SDS011;39421;53.204;6.568;2023-08-12T08:13:29;22.13;;;12.80;;
53533;SDS011;39421;53.204;6.568;2023-08-12T08:15:55;20.93;;;12.63;;
53533;SDS011;39421;53.204;6.568;2023-08-12T08:18:21;21.50;;;13.13;;
53533;SDS011;39421;53.204;6.568;2023-08-12T08:20:47;20.50;;;12.88;;
53533;SDS011;39421;53.204;6.568;2023-08-12T08:23:14;20.50;;;13.13;;
53533;SDS011;39421;53.204;6.568;2023-08-12T08:25:40;21.73;;;13.30;;
53533;SDS011;39421;53.204;6.568;2023-08-12T08:28:06;23.30;;;13.77;;
53533;SDS011;39421;53.204;6.568;2023-08-12T08:30:33;21.92;;;14.05;;
53533;SDS011;39421;53.204;6.568;2023-08-12T08:32:59;21.57;;;13.60;;
53533;SDS011;39421;53.204;6.568;2023-08-12T08:35:25;21.38;;;13.48;;
53533;SDS011;39421;53.204;6.568;2023-08-12T08:37:51;21.33;;;13.20;;
53533;SDS011;39421;53.204;6.568;2023-08-12T08:40:17;21.40;;;13.70;;
53533;SDS011;39421;53.204;6.568;2023-08-12T08:42:43;21.83;;;13.43;;
53533;SDS011;39421;53.204;6.568;2023-08-12T08:45:12;23.08;;;13.50;;
53533;SDS011;39421;53.204;6.568;2023-08-12T08:47:38;20.65;;;12.88;;
53533;SDS011;39421;53.204;6.568;2023-08-12T08:50:05;21.57;;;13.97;;
53533;SDS011;39421;53.204;6.568;2023-08-12T08:52:31;20.43;;;13.07;;
53533;SDS011;39421;53.204;6.568;2023-08-12T08:54:59;20.80;;;13.23;;
53533;SDS011;39421;53.204;6.568;2023-08-12T08:57:26;20.37;;;13.30;;
53533;SDS011;39421;53.204;6.568;2023-08-12T08:59:53;21.88;;;13.23;;
53533;SDS011;39421;53.204;6.568;2023-08-12T09:02:19;19.80;;;13.48;;
53533;SDS011;39421;53.204;6.568;2023-08-12T09:04:46;20.98;;;13.55;;
53533;SDS011;39421;53.204;6.568;2023-08-12T09:07:13;21.55;;;13.38;;
53533;SDS011;39421;53.204;6.568;2023-08-12T09:09:39;22.93;;;14.20;;
53533;SDS011;39421;53.204;6.568;2023-08-12T09:12:08;23.70;;;14.48;;
53533;SDS011;39421;53.204;6.568;2023-08-12T09:14:34;21.50;;;13.70;;
53533;SDS011;39421;53.204;6.568;2023-08-12T09:17:00;21.42;;;13.95;;
53533;SDS011;39421;53.204;6.568;2023-08-12T09:19:27;26.05;;;15.40;;
53533;SDS011;39421;53.204;6.568;2023-08-12T09:21:54;26.98;;;15.50;;
53533;SDS011;39421;53.204;6.568;2023-08-12T09:24:26;23.17;;;14.67;;
53533;SDS011;39421;53.204;6.568;2023-08-12T09:26:54;26.33;;;15.82;;
53533;SDS011;39421;53.204;6.568;2023-08-12T09:29:29;22.95;;;15.05;;
53533;SDS011;39421;53.204;6.568;2023-08-12T09:32:04;27.38;;;16.20;;
53533;SDS011;39421;53.204;6.568;2023-08-12T09:34:31;28.27;;;16.80;;
53533;SDS011;39421;53.204;6.568;2023-08-12T09:36:57;25.80;;;16.40;;
53533;SDS011;39421;53.204;6.568;2023-08-12T09:39:23;25.63;;;16.27;;
53533;SDS011;39421;53.204;6.568;2023-08-12T09:41:49;25.30;;;16.30;;
53533;SDS011;39421;53.204;6.568;2023-08-12T09:44:17;26.27;;;17.13;;
53533;SDS011;39421;53.204;6.568;2023-08-12T09:46:43;24.88;;;16.02;;
53533;SDS011;39421;53.204;6.568;2023-08-12T09:49:09;26.27;;;16.60;;
53533;SDS011;39421;53.204;6.568;2023-08-12T09:51:35;28.98;;;17.45;;
53533;SDS011;39421;53.204;6.568;2023-08-12T09:54:02;25.27;;;16.67;;
53533;SDS011;39421;53.204;6.568;2023-08-12T09:56:29;25.23;;;16.65;;
53533;SDS011;39421;53.204;6.568;2023-08-12T09:58:58;25.02;;;16.40;;
53533;SDS011;39421;53.204;6.568;2023-08-12T10:01:25;26.58;;;17.08;;
53533;SDS011;39421;53.204;6.568;2023-08-12T10:03:51;27.08;;;17.73;;
53533;SDS011;39421;53.204;6.568;2023-08-12T10:06:18;23.92;;;16.67;;
53533;SDS011;39421;53.204;6.568;2023-08-12T10:08:45;27.73;;;18.05;;
53533;SDS011;39421;53.204;6.568;2023-08-12T10:11:12;26.05;;;17.20;;
53533;SDS011;39421;53.204;6.568;2023-08-12T10:13:39;23.15;;;16.20;;
53533;SDS011;39421;53.204;6.568;2023-08-12T10:16:06;24.87;;;16.67;;
53533;SDS011;39421;53.204;6.568;2023-08-12T10:18:32;25.30;;;16.27;;
53533;SDS011;39421;53.204;6.568;2023-08-12T10:20:59;25.05;;;16.48;;
53533;SDS011;39421;53.204;6.568;2023-08-12T10:23:25;22.97;;;15.47;;
53533;SDS011;39421;53.204;6.568;2023-08-12T10:25:53;20.58;;;13.88;;
53533;SDS011;39421;53.204;6.568;2023-08-12T10:28:20;18.10;;;12.23;;
53533;SDS011;39421;53.204;6.568;2023-08-12T10:30:46;20.15;;;13.32;;
53533;SDS011;39421;53.204;6.568;2023-08-12T10:33:14;18.38;;;11.88;;
53533;SDS011;39421;53.204;6.568;2023-08-12T10:35:48;16.95;;;10.63;;
53533;SDS011;39421;53.204;6.568;2023-08-12T10:38:20;17.45;;;11.35;;
53533;SDS011;39421;53.204;6.568;2023-08-12T10:40:46;18.13;;;12.07;;
53533;SDS011;39421;53.204;6.568;2023-08-12T10:43:13;15.57;;;10.30;;
53533;SDS011;39421;53.204;6.568;2023-08-12T10:48:10;12.98;;;8.48;;
53533;SDS011;39421;53.204;6.568;2023-08-12T10:50:36;13.95;;;7.40;;
53533;SDS011;39421;53.204;6.568;2023-08-12T10:55:54;11.35;;;5.65;;
53533;SDS011;39421;53.204;6.568;2023-08-12T10:58:27;8.93;;;4.63;;
53533;SDS011;39421;53.204;6.568;2023-08-12T11:00:54;10.13;;;5.25;;
53533;SDS011;39421;53.204;6.568;2023-08-12T11:03:20;9.43;;;5.15;;
53533;SDS011;39421;53.204;6.568;2023-08-12T11:05:46;10.38;;;5.50;;
53533;SDS011;39421;53.204;6.568;2023-08-12T11:08:12;11.10;;;5.93;;
53533;SDS011;39421;53.204;6.568;2023-08-12T11:10:39;9.75;;;4.78;;
53533;SDS011;39421;53.204;6.568;2023-08-12T11:13:05;9.38;;;4.15;;
53533;SDS011;39421;53.204;6.568;2023-08-12T11:17:58;8.68;;;4.50;;
53533;SDS011;39421;53.204;6.568;2023-08-12T11:20:24;10.35;;;4.90;;
53533;SDS011;39421;53.204;6.568;2023-08-12T11:22:51;8.93;;;4.22;;
53533;SDS011;39421;53.204;6.568;2023-08-12T11:25:18;8.50;;;4.10;;
53533;SDS011;39421;53.204;6.568;2023-08-12T11:27:45;8.97;;;4.33;;
53533;SDS011;39421;53.204;6.568;2023-08-12T11:30:12;9.32;;;4.63;;
53533;SDS011;39421;53.204;6.568;2023-08-12T11:32:40;7.95;;;3.95;;
53533;SDS011;39421;53.204;6.568;2023-08-12T11:35:07;8.48;;;3.83;;
53533;SDS011;39421;53.204;6.568;2023-08-12T11:37:37;8.20;;;4.00;;
53533;SDS011;39421;53.204;6.568;2023-08-12T11:40:04;7.53;;;3.70;;
53533;SDS011;39421;53.204;6.568;2023-08-12T11:42:30;7.45;;;3.67;;
53533;SDS011;39421;53.204;6.568;2023-08-12T11:44:57;6.32;;;2.80;;
53533;SDS011;39421;53.204;6.568;2023-08-12T11:47:23;5.05;;;2.03;;
53533;SDS011;39421;53.204;6.568;2023-08-12T11:49:51;3.08;;;1.60;;
53533;SDS011;39421;53.204;6.568;2023-08-12T11:52:17;2.60;;;1.50;;
53533;SDS011;39421;53.204;6.568;2023-08-12T11:54:43;3.13;;;1.42;;
53533;SDS011;39421;53.204;6.568;2023-08-12T11:57:10;3.20;;;1.48;;
53533;SDS011;39421;53.204;6.568;2023-08-12T11:59:36;3.75;;;1.42;;
53533;SDS011;39421;53.204;6.568;2023-08-12T12:02:02;3.83;;;1.30;;
53533;SDS011;39421;53.204;6.568;2023-08-12T12:04:32;6.47;;;2.42;;
53533;SDS011;39421;53.204;6.568;2023-08-12T12:06:58;6.63;;;2.50;;
53533;SDS011;39421;53.204;6.568;2023-08-12T12:09:25;6.03;;;2.40;;
53533;SDS011;39421;53.204;6.568;2023-08-12T12:11:54;7.57;;;2.70;;
53533;SDS011;39421;53.204;6.568;2023-08-12T12:14:20;7.60;;;2.70;;
53533;SDS011;39421;53.204;6.568;2023-08-12T12:16:47;6.68;;;2.42;;
53533;SDS011;39421;53.204;6.568;2023-08-12T12:19:14;7.18;;;2.40;;
53533;SDS011;39421;53.204;6.568;2023-08-12T12:21:41;7.10;;;2.58;;
53533;SDS011;39421;53.204;6.568;2023-08-12T12:24:10;8.57;;;2.55;;
53533;SDS011;39421;53.204;6.568;2023-08-12T12:26:36;8.40;;;2.70;;
53533;SDS011;39421;53.204;6.568;2023-08-12T12:29:03;7.63;;;2.30;;
53533;SDS011;39421;53.204;6.568;2023-08-12T12:31:34;6.38;;;2.60;;
53533;SDS011;39421;53.204;6.568;2023-08-12T12:34:04;6.43;;;2.42;;
53533;SDS011;39421;53.204;6.568;2023-08-12T12:36:31;8.63;;;2.47;;
53533;SDS011;39421;53.204;6.568;2023-08-12T12:38:57;7.00;;;2.50;;
53533;SDS011;39421;53.204;6.568;2023-08-12T12:41:23;7.57;;;2.40;;
53533;SDS011;39421;53.204;6.568;2023-08-12T12:43:49;7.77;;;2.30;;
53533;SDS011;39421;53.204;6.568;2023-08-12T12:46:15;6.80;;;2.08;;
53533;SDS011;39421;53.204;6.568;2023-08-12T12:48:42;7.25;;;2.28;;
53533;SDS011;39421;53.204;6.568;2023-08-12T12:51:08;6.85;;;2.17;;
53533;SDS011;39421;53.204;6.568;2023-08-12T12:53:34;6.60;;;2.30;;
53533;SDS011;39421;53.204;6.568;2023-08-12T12:56:00;9.02;;;2.58;;
53533;SDS011;39421;53.204;6.568;2023-08-12T12:58:33;7.00;;;2.50;;
53533;SDS011;39421;53.204;6.568;2023-08-12T13:00:59;7.63;;;2.43;;
53533;SDS011;39421;53.204;6.568;2023-08-12T13:03:25;7.40;;;2.30;;
53533;SDS011;39421;53.204;6.568;2023-08-12T13:05:52;9.32;;;2.60;;
53533;SDS011;39421;53.204;6.568;2023-08-12T13:08:18;7.28;;;2.55;;
53533;SDS011;39421;53.204;6.568;2023-08-12T13:10:44;8.48;;;2.55;;
53533;SDS011;39421;53.204;6.568;2023-08-12T13:13:12;8.57;;;2.60;;
53533;SDS011;39421;53.204;6.568;2023-08-12T13:15:38;8.82;;;2.28;;
53533;SDS011;39421;53.204;6.568;2023-08-12T13:18:04;7.15;;;2.13;;
53533;SDS011;39421;53.204;6.568;2023-08-12T13:20:30;7.37;;;2.13;;
53533;SDS011;39421;53.204;6.568;2023-08-12T13:22:56;7.03;;;2.20;;
53533;SDS011;39421;53.204;6.568;2023-08-12T13:25:22;7.93;;;2.10;;
53533;SDS011;39421;53.204;6.568;2023-08-12T13:27:48;7.65;;;2.22;;
53533;SDS011;39421;53.204;6.568;2023-08-12T13:30:15;9.73;;;2.57;;
53533;SDS011;39421;53.204;6.568;2023-08-12T13:32:41;7.45;;;2.50;;
53533;SDS011;39421;53.204;6.568;2023-08-12T13:35:07;9.18;;;2.80;;
53533;SDS011;39421;53.204;6.568;2023-08-12T13:37:33;9.20;;;2.65;;
53533;SDS011;39421;53.204;6.568;2023-08-12T13:40:00;9.02;;;2.70;;
53533;SDS011;39421;53.204;6.568;2023-08-12T13:42:26;9.15;;;2.80;;
53533;SDS011;39421;53.204;6.568;2023-08-12T13:44:52;9.10;;;2.85;;
53533;SDS011;39421;53.204;6.568;2023-08-12T13:47:18;10.10;;;2.78;;
53533;SDS011;39421;53.204;6.568;2023-08-12T13:49:44;9.82;;;2.80;;
53533;SDS011;39421;53.204;6.568;2023-08-12T13:52:10;9.43;;;2.85;;
53533;SDS011;39421;53.204;6.568;2023-08-12T13:54:37;9.13;;;2.60;;
53533;SDS011;39421;53.204;6.568;2023-08-12T13:57:03;9.93;;;2.80;;
53533;SDS011;39421;53.204;6.568;2023-08-12T13:59:29;9.73;;;2.60;;
53533;SDS011;39421;53.204;6.568;2023-08-12T14:01:55;9.65;;;2.75;;
53533;SDS011;39421;53.204;6.568;2023-08-12T14:04:21;8.85;;;2.50;;
53533;SDS011;39421;53.204;6.568;2023-08-12T14:06:47;10.00;;;3.08;;
53533;SDS011;39421;53.204;6.568;2023-08-12T14:09:13;10.02;;;2.92;;
53533;SDS011;39421;53.204;6.568;2023-08-12T14:11:42;11.10;;;2.65;;
53533;SDS011;39421;53.204;6.568;2023-08-12T14:14:08;9.52;;;2.53;;
53533;SDS011;39421;53.204;6.568;2023-08-12T14:16:35;9.73;;;2.60;;
53533;SDS011;39421;53.204;6.568;2023-08-12T14:19:01;7.70;;;1.80;;
53533;SDS011;39421;53.204;6.568;2023-08-12T14:21:28;7.70;;;2.05;;
53533;SDS011;39421;53.204;6.568;2023-08-12T14:23:54;8.35;;;1.80;;
53533;SDS011;39421;53.204;6.568;2023-08-12T14:26:20;7.05;;;1.80;;
53533;SDS011;39421;53.204;6.568;2023-08-12T14:28:46;8.25;;;1.98;;
53533;SDS011;39421;53.204;6.568;2023-08-12T14:31:12;8.82;;;1.90;;
53533;SDS011;39421;53.204;6.568;2023-08-12T14:33:38;8.70;;;2.15;;
53533;SDS011;39421;53.204;6.568;2023-08-12T14:36:05;8.48;;;1.90;;
53533;SDS011;39421;53.204;6.568;2023-08-12T14:38:32;8.15;;;2.05;;
53533;SDS011;39421;53.204;6.568;2023-08-12T14:40:58;8.18;;;1.90;;
53533;SDS011;39421;53.204;6.568;2023-08-12T14:43:24;8.43;;;1.70;;